Latest Weather Observations for Smithton

IDT60801

Issued at 8:05 am EST Thursday 2 October 2014 (issued every 30 minutes, with the page automatically refreshed every 10 minutes)

About weather observations | Map of weather stations | Latest weather observations for TAS | Other Formats
Station Details ID: 091292 Name: SMITHTON AERODROME Lat: -40.83 Lon: 145.08 Height: 7.5 m
Data from the previous 72 hours. | See also: Recent months at Smithton
Date/Time
EST
Temp
°C
App
Temp
°C
Dew
Point
Rel
Hum
%
Delta-T
°C
Wind Press
QNH
hPa
Press
MSL
hPa
Rain
since 9 am
mm
Dir
 
Spd
km/h
Gust
km/h
Spd
kts
Gust
kts
02/08:00am 12.1 6.4 11.0 93 0.6 WSW 32 44 17 24 1018.7 - 1.4
02/07:42am 11.2 6.0 10.1 93 0.6 WSW 28 46 15 25 1018.6 - 1.4
02/07:30am 11.6 6.9 10.8 95 0.4 WSW 26 33 14 18 1018.6 - 1.4
02/07:00am 10.8 7.1 10.0 95 0.4 WSW 20 26 11 14 1018.6 - 1.2
02/06:30am 10.6 6.0 9.5 93 0.6 WSW 24 35 13 19 1018.3 - 1.2
02/06:00am 10.5 6.4 10.0 97 0.3 WSW 22 30 12 16 1018.2 1018.2 1.2
02/05:30am 10.5 6.0 9.9 96 0.3 WSW 24 32 13 17 1018.0 - 1.2
02/05:00am 10.5 4.8 9.7 95 0.4 WSW 30 43 16 23 1018.1 - 1.0
02/04:49am 10.6 4.9 9.8 95 0.4 WSW 30 48 16 26 1018.0 - 1.0
02/04:30am 10.5 5.8 9.4 93 0.5 WSW 24 33 13 18 1017.9 - 1.0
02/04:00am 11.0 5.2 9.3 89 0.8 WSW 30 39 16 21 1017.9 - 1.0
02/03:36am 11.1 5.8 9.9 92 0.6 W 28 48 15 26 1017.7 - 1.0
02/03:30am 11.0 6.5 9.9 93 0.6 W 24 30 13 16 1017.7 - 1.0
02/03:00am 11.0 6.1 9.9 93 0.6 W 26 39 14 21 1017.9 1017.9 1.0
02/02:30am 10.9 6.3 9.8 93 0.6 WSW 24 33 13 18 1018.1 - 1.0
02/02:00am 11.0 5.7 9.8 92 0.6 W 28 37 15 20 1018.4 - 1.0
02/01:30am 10.9 4.6 9.7 92 0.6 W 33 43 18 23 1018.6 - 1.0
02/01:10am 11.2 5.3 10.3 94 0.5 WSW 32 50 17 27 1018.8 - 1.0
02/01:00am 11.1 5.5 10.3 95 0.4 W 30 43 16 23 1018.8 - 1.0
02/12:30am 11.1 5.9 10.2 94 0.5 W 28 39 15 21 1019.0 - 1.0
02/12:00am 10.9 5.3 10.1 95 0.4 W 30 43 16 23 1019.1 1019.1 1.0
 
Date/Time
EST
Temp
°C
App
Temp
°C
Dew
Point
Rel
Hum
%
Delta-T
°C
Wind Press
QNH
hPa
Press
MSL
hPa
Rain
since 9 am
mm
Dir
 
Spd
km/h
Gust
km/h
Spd
kts
Gust
kts
01/11:30pm 11.1 6.3 10.3 95 0.4 W 26 37 14 20 1019.3 - 0.8
01/11:10pm 11.1 6.0 10.5 96 0.3 W 28 50 15 27 1019.3 - 0.8
01/11:00pm 11.1 7.1 10.5 96 0.3 W 22 32 12 17 1019.5 - 0.8
01/10:30pm 10.8 7.1 10.0 95 0.4 W 20 32 11 17 1019.7 - 0.6
01/10:00pm 11.0 7.5 10.2 95 0.4 W 19 26 10 14 1019.9 - 0.4
01/09:30pm 11.1 6.6 10.2 94 0.5 W 24 32 13 17 1020.1 - 0.4
01/09:00pm 11.3 6.2 10.5 95 0.4 W 28 39 15 21 1020.2 1020.2 0.4
01/08:30pm 11.1 7.4 10.3 95 0.4 W 20 28 11 15 1020.2 - 0.4
01/08:00pm 11.0 7.2 9.9 93 0.6 W 20 28 11 15 1020.3 - 0.4
01/07:30pm 10.7 7.8 9.6 93 0.6 W 15 22 8 12 1020.4 - 0.4
01/07:00pm 10.6 6.6 8.9 89 0.8 W 20 28 11 15 1020.4 - 0.0
01/06:30pm 10.9 6.3 8.1 83 1.4 W 22 32 12 17 1020.2 - 0.0
01/06:00pm 11.4 7.0 7.5 77 1.9 W 20 28 11 15 1020.2 1020.2 0.0
01/05:30pm 11.5 7.0 7.0 74 2.1 W 20 32 11 17 1020.1 - 0.0
01/05:00pm 11.6 5.5 6.5 71 2.4 W 28 35 15 19 1019.9 - 0.0
01/04:30pm 12.0 7.3 6.1 67 2.8 WSW 20 30 11 16 1019.8 - 0.0
01/04:00pm 12.0 5.6 5.4 64 3.1 WSW 28 37 15 20 1019.8 - 0.0
01/03:30pm 12.2 6.0 6.0 66 2.9 WSW 28 41 15 22 1019.8 - 0.0
01/03:00pm 12.4 5.4 5.8 64 3.1 WSW 32 44 17 24 1019.6 1019.6 0.0
01/02:30pm 11.3 4.4 6.6 73 2.2 WSW 32 44 17 24 1019.6 - 0.0
01/02:00pm 13.1 5.5 6.0 62 3.4 WSW 35 50 19 27 1019.5 - 0.0
01/01:30pm 13.2 4.8 5.6 60 3.6 WSW 39 52 21 28 1019.7 - 0.0
01/01:00pm 12.8 4.1 4.0 55 4.0 WSW 39 46 21 25 1019.5 - 0.0
01/12:30pm 12.7 6.5 6.3 65 3.0 WSW 28 39 15 21 1019.4 - 0.0
01/12:00pm 12.0 3.8 4.5 60 3.4 WSW 37 48 20 26 1019.6 1019.6 0.0
01/11:38am 12.3 4.1 4.8 60 3.4 WSW 37 56 20 30 1019.2 - 0.0
01/11:30am 13.4 6.6 5.1 57 3.9 W 30 46 16 25 1019.3 - 0.0
01/11:00am 13.1 5.4 5.3 59 3.6 WSW 35 46 19 25 1018.9 - 0.0
01/10:43am 12.4 3.3 4.1 57 3.7 SW 41 50 22 27 1019.0 - 0.0
01/10:30am 12.1 5.5 7.8 75 2.1 W 32 52 17 28 1019.1 - 0.0
01/10:00am 12.4 5.2 4.9 60 3.4 SW 32 48 17 26 1018.8 - 0.0
01/09:58am 11.7 4.7 4.2 60 3.4 SW 30 48 16 26 1018.8 - 0.0
01/09:30am 12.0 5.3 5.6 65 3.0 WSW 30 39 16 21 1018.6 - 0.0
01/09:00am 12.1 5.6 6.4 68 2.7 WSW 30 41 16 22 1018.3 1018.3 18.6
01/08:30am 10.8 5.5 6.6 75 2.0 SW 24 32 13 17 1018.0 - 18.6
01/08:00am 9.8 3.2 6.2 78 1.7 WSW 30 43 16 23 1017.5 - 18.6
01/07:30am 8.9 2.6 5.5 79 1.5 SW 28 39 15 21 1017.2 - 18.6
01/07:00am 7.7 2.3 6.3 91 0.6 WSW 24 30 13 16 1016.7 - 18.6
01/06:30am 4.0 0.1 3.6 97 0.2 SSW 13 15 7 8 1016.2 - 18.6
01/06:00am 3.1 -0.6 2.4 95 0.3 W 11 19 6 10 1015.6 1015.6 18.6
01/05:30am 3.6 0.3 2.7 94 0.4 SSW 9 11 5 6 1015.0 - 18.6
01/05:00am 4.9 1.5 4.0 94 0.4 S 11 17 6 9 1014.4 - 18.6
01/04:30am 4.6 1.1 3.3 91 0.5 W 11 15 6 8 1014.1 - 18.6
01/04:00am 5.0 1.4 3.0 87 0.8 SW 11 15 6 8 1013.3 - 18.6
01/03:30am 6.8 0.6 4.1 83 1.2 WSW 26 35 14 19 1013.0 - 18.6
01/03:05am 7.0 0.5 4.8 86 1.0 WSW 28 50 15 27 1012.3 - 18.4
01/03:00am 6.8 1.1 5.1 89 0.7 WSW 24 30 13 16 1012.5 1012.5 18.4
01/02:30am 6.5 2.1 4.8 89 0.7 SW 17 22 9 12 1011.9 - 18.2
01/02:00am 5.6 1.1 4.2 91 0.6 WSW 17 20 9 11 1011.4 - 17.8
01/01:30am 6.2 0.7 4.0 86 0.9 SW 22 28 12 15 1010.9 - 17.8
01/01:00am 5.9 0.5 4.5 91 0.6 WSW 22 28 12 15 1010.2 - 17.8
01/12:30am 4.9 0.4 4.3 96 0.3 WSW 17 24 9 13 1010.1 - 17.8
01/12:00am 5.1 2.5 4.4 95 0.3 SW 7 9 4 5 1009.6 1009.6 17.8
 
Date/Time
EST
Temp
°C
App
Temp
°C
Dew
Point
Rel
Hum
%
Delta-T
°C
Wind Press
QNH
hPa
Press
MSL
hPa
Rain
since 9 am
mm
Dir
 
Spd
km/h
Gust
km/h
Spd
kts
Gust
kts
30/11:30pm 5.6 1.9 4.7 94 0.4 SW 13 17 7 9 1009.3 - 17.8
30/11:00pm 5.8 0.9 5.1 95 0.3 WSW 20 32 11 17 1009.3 - 16.6
30/10:30pm 5.7 2.4 4.7 93 0.4 SSW 11 15 6 8 1008.3 - 15.8
30/10:00pm 6.4 3.3 5.4 93 0.4 SW 11 17 6 9 1008.0 - 15.8
30/09:30pm 6.4 2.5 5.4 93 0.4 WSW 15 17 8 9 1007.6 - 15.8
30/09:00pm 6.7 1.4 5.2 90 0.7 SW 22 41 12 22 1007.0 1007.0 15.8
30/08:30pm 7.2 0.4 5.2 87 0.9 WSW 30 35 16 19 1006.8 - 14.6
30/08:00pm 7.7 2.9 5.5 86 1.0 SW 20 37 11 20 1005.4 - 14.0
30/07:30pm 7.0 2.8 5.8 92 0.5 WSW 17 24 9 13 1005.1 - 13.8
30/07:00pm 7.2 2.3 5.3 88 0.8 WSW 20 24 11 13 1004.3 - 13.8
30/06:30pm 7.7 2.6 5.8 88 0.9 WSW 22 35 12 19 1003.6 - 13.6
30/06:00pm 8.0 0.8 4.9 81 1.4 WSW 32 39 17 21 1002.8 1002.8 13.6
30/05:30pm 8.4 0.4 5.9 84 1.1 SW 37 54 20 29 1002.5 - 13.4
30/05:00pm 10.3 3.4 7.4 82 1.4 WSW 33 46 18 25 1001.6 - 13.4
30/04:49pm 9.8 2.1 7.1 83 1.3 WSW 37 56 20 30 1001.0 - 13.4
30/04:30pm 10.3 4.2 8.4 88 0.9 WSW 30 46 16 25 1000.4 - 13.4
30/04:00pm 8.8 2.4 7.1 89 0.8 W 30 41 16 22 1000.6 - 13.4
30/03:53pm 8.7 1.7 7.0 89 0.8 W 33 52 18 28 1000.5 - 13.4
30/03:43pm 8.7 1.0 7.0 89 0.8 WSW 37 57 20 31 1000.0 - 13.4
30/03:30pm 8.9 -2.9 7.4 90 0.7 WSW 59 82 32 44 999.5 - 13.2
30/03:27pm 9.0 -3.2 7.5 90 0.7 WSW 61 82 33 44 999.4 - 13.2
30/03:25pm 9.3 -3.5 8.1 92 0.6 WSW 65 82 35 44 999.3 - 13.0
30/03:22pm 9.8 2.2 8.9 94 0.4 WSW 39 61 21 33 998.9 - 12.8
30/03:00pm 10.3 3.9 9.5 95 0.4 WSW 33 43 18 23 998.5 998.5 12.4
30/02:30pm 10.7 5.3 9.6 93 0.6 W 28 39 15 21 998.1 - 10.8
30/02:01pm 11.2 3.8 9.8 91 0.7 W 39 57 21 31 998.0 - 10.2
30/02:00pm 11.1 3.7 9.7 91 0.7 W 39 56 21 30 997.6 - 10.0
30/01:53pm 11.7 6.5 10.1 90 0.8 W 28 50 15 27 998.1 - 9.4
30/01:30pm 12.4 7.2 10.1 86 1.2 W 28 39 15 21 997.7 - 8.6
30/01:00pm 12.1 6.4 11.2 94 0.5 W 32 41 17 22 997.4 - 8.6
30/12:40pm 11.9 6.1 11.4 97 0.3 WNW 33 57 18 31 998.3 - 8.6
30/12:30pm 11.9 5.4 11.6 98 0.2 WNW 37 54 20 29 998.1 - 8.4
30/12:00pm 12.2 5.8 11.9 98 0.2 WNW 37 48 20 26 998.5 998.5 6.2
30/11:30am 13.0 6.8 12.7 98 0.2 NW 37 46 20 25 998.8 - 3.2
30/11:00am 13.4 7.7 13.1 98 0.2 NNW 35 48 19 26 999.4 - 1.4
30/10:39am 13.5 7.4 13.0 97 0.3 NNW 37 56 20 30 999.9 - 0.8
30/10:30am 13.4 6.8 12.6 95 0.4 NNW 39 56 21 30 1000.0 - 0.6
30/10:00am 14.5 7.9 12.5 88 1.1 NNW 39 54 21 29 1000.3 - 0.0
30/09:30am 14.1 7.5 12.5 90 0.9 NNW 39 50 21 27 1001.0 - 0.0
30/09:02am 14.0 7.9 11.9 87 1.1 NNW 35 54 19 29 1001.4 - 0.0
30/09:00am 14.1 8.5 12.0 87 1.1 NNW 33 50 18 27 1001.3 1001.3 0.0
30/08:32am 14.3 8.5 11.6 84 1.4 NNW 33 52 18 28 1001.9 - 0.0
30/08:30am 14.4 8.7 11.9 85 1.3 NNW 33 43 18 23 1002.1 - 0.0
30/08:00am 13.9 7.8 11.6 86 1.2 NNW 35 46 19 25 1002.6 - 0.0
30/07:30am 13.4 7.4 10.9 85 1.3 NNW 33 46 18 25 1002.8 - 0.0
30/07:00am 13.2 7.4 10.7 85 1.3 NNW 32 43 17 23 1003.4 - 0.0
30/06:30am 12.9 7.5 11.0 88 1.0 NNW 30 44 16 24 1003.8 - 0.0
30/06:00am 12.7 8.0 10.8 88 1.0 NNW 26 35 14 19 1003.9 1003.9 0.0
30/05:30am 12.5 8.2 10.9 90 0.8 NNW 24 30 13 16 1004.1 - 0.0
30/05:00am 12.6 8.0 11.0 90 0.8 NNW 26 35 14 19 1004.4 - 0.0
30/04:30am 12.4 8.1 10.6 89 0.9 NNW 24 35 13 19 1004.4 - 0.0
30/04:00am 12.3 8.3 10.4 88 1.0 NNW 22 33 12 18 1004.8 - 0.0
30/03:30am 12.2 8.7 10.3 88 1.0 N 19 24 10 13 1004.9 - 0.0
30/03:00am 11.7 8.6 10.3 91 0.7 NNW 17 22 9 12 1005.5 1005.5 0.0
30/02:30am 11.2 8.0 9.8 91 0.7 NNW 17 22 9 12 1005.9 - 0.0
30/02:00am 11.2 8.3 9.6 90 0.8 N 15 20 8 11 1006.6 - 0.0
30/01:30am 11.2 8.2 9.3 88 1.0 NNW 15 17 8 9 1007.0 - 0.0
30/01:00am 11.4 7.6 9.1 86 1.1 NNW 19 22 10 12 1007.5 - 0.0
30/12:30am 11.9 8.5 9.3 84 1.3 NW 17 22 9 12 1008.0 - 0.0
30/12:00am 12.2 10.2 10.3 88 1.0 WNW 11 17 6 9 1008.4 1008.4 0.0
 
Date/Time
EST
Temp
°C
App
Temp
°C
Dew
Point
Rel
Hum
%
Delta-T
°C
Wind Press
QNH
hPa
Press
MSL
hPa
Rain
since 9 am
mm
Dir
 
Spd
km/h
Gust
km/h
Spd
kts
Gust
kts
29/11:30pm 13.0 9.6 10.5 85 1.3 WNW 19 26 10 14 1009.2 - 0.0
29/11:00pm 13.0 9.9 10.2 83 1.4 NW 17 20 9 11 1009.2 - 0.0
29/10:30pm 12.9 8.9 10.6 86 1.2 WNW 22 32 12 17 1009.4 - 0.0
29/10:00pm 13.0 10.5 10.9 87 1.1 NW 15 22 8 12 1009.4 - 0.0
29/09:30pm 12.8 9.8 10.7 87 1.1 NW 17 22 9 12 1009.4 - 0.0
29/09:00pm 12.5 10.2 10.6 88 1.0 WNW 13 20 7 11 1009.3 1009.3 0.0
29/08:30pm 11.9 9.0 9.8 87 1.1 WNW 15 17 8 9 1009.2 - 0.0
29/08:00pm 12.0 9.8 9.4 84 1.3 WNW 11 13 6 7 1009.2 - 0.0
29/07:30pm 12.7 10.1 9.2 79 1.8 NW 13 17 7 9 1009.2 - 0.0
29/07:00pm 12.9 10.2 8.8 76 2.1 WNW 13 17 7 9 1008.9 - 0.0
29/06:30pm 13.0 9.3 8.1 72 2.4 WNW 17 20 9 11 1008.8 - 0.0
29/06:00pm 13.3 7.4 7.7 69 2.8 WNW 28 35 15 19 1009.0 1009.0 0.0
29/05:30pm 13.9 8.0 9.1 73 2.4 NW 30 39 16 21 1008.9 - 0.0
29/05:00pm 14.1 7.1 8.5 69 2.8 NW 35 48 19 26 1008.9 - 0.0
29/04:30pm 14.3 7.4 8.7 69 2.8 NW 35 48 19 26 1008.9 - 0.0
29/04:00pm 14.5 7.1 8.5 67 3.0 NW 37 46 20 25 1008.9 - 0.0
29/03:30pm 14.9 8.9 8.6 66 3.2 NW 30 43 16 23 1008.8 - 0.0
29/03:00pm 15.3 9.0 7.6 60 3.8 WNW 30 44 16 24 1008.9 1008.9 0.0
29/02:44pm 15.8 9.5 7.3 57 4.2 WNW 30 52 16 28 1008.9 - 0.0
29/02:30pm 16.1 8.9 7.6 57 4.2 WNW 35 46 19 25 1009.2 - 0.0
29/02:00pm 16.4 9.9 9.1 62 3.8 WNW 33 50 18 27 1009.4 - 0.0
29/01:51pm 15.4 9.1 7.4 59 4.0 WNW 30 48 16 26 1009.5 - 0.0
29/01:30pm 15.1 9.0 8.1 63 3.5 WNW 30 41 16 22 1009.6 - 0.0
29/01:00pm 15.3 8.5 7.1 58 4.0 NW 32 43 17 23 1009.5 - 0.0
29/12:30pm 16.2 9.3 7.2 55 4.5 NW 33 44 18 24 1009.3 - 0.0
29/12:00pm 16.2 9.3 7.4 56 4.4 WNW 33 46 18 25 1009.4 1009.4 0.0
29/11:30am 16.3 9.5 7.0 54 4.6 WNW 32 44 17 24 1009.3 - 0.0
29/11:00am 16.8 11.7 9.2 61 3.9 W 26 33 14 18 1009.3 - 0.0
29/10:40am 15.0 9.2 7.8 62 3.6 WNW 28 46 15 25 1009.2 - 0.0
29/10:30am 16.0 10.8 8.7 62 3.7 WNW 26 33 14 18 1009.2 - 0.0
29/10:00am 15.3 9.6 8.3 63 3.5 WNW 28 41 15 22 1009.1 - 0.0
29/09:30am 14.7 8.0 7.3 61 3.6 W 32 43 17 23 1009.1 - 0.0
29/09:00am 13.8 7.7 8.2 69 2.8 W 30 43 16 23 1009.2 1009.2 0.6
29/08:30am 14.0 8.6 7.8 66 3.1 W 26 35 14 19 1008.9 - 0.6

Other Formats:

Comma delimited format used in spreadsheet applications
http://www.bom.gov.au/fwo/IDT60801/IDT60801.94953.axf

JavaScript Object Notation format (JSON) in row-major order
http://www.bom.gov.au/fwo/IDT60801/IDT60801.94953.json